Aérodrome :
LOGIN :

S'inscrire | Disclaimer

   EN    FR    IT 

 










Légende :    VFR   VFR Marginal   IFR   IFR Intensif   IFR Très Intensif
Visi : 
Plafond : 
>= 8 km
>= 3000ft
5 à 8 km
1000 à 3000 ft
1500m à 5 km
500 à 1000 ft
800 à 1500m
200 à 500 ft
< 800m
< 200 ft
Symboles :   Orages  Brouillard  Fortes neiges  Fortes précipitations  Vent > 20 kt
SIGMETs :   Divers  Orages  Givrage  Turbulence  Onde Orograph.  Cendres Volcan.







- Altitude de l'aérodrome : 96 ft
- Code IATA : REG


LICR - Reggio Calabria

DERNIER METAR :
  • 280550Z 35009KT CAVOK 30/15 Q1010

METARs EXPIRÉS :
  • 280450Z 35009KT CAVOK 27/14 Q1011
  • 280355Z 05006KT CAVOK 24/13 Q1010 RMK VIS MIN 9999

TAF TAF LICR
Valide du 28 à 06h jusqu'au 29 à 06h UTC


280500Z 2806/2906 VRB05KT 9999 SCT030
BECMG 2812/2814 18012KT
TEMPO 2816/2818 RA
BECMG 2819/2821 VRB05KT
Pas de NOTAMs connus pour ce terrain.



MET'MAP, la Météo Aéronautique d'un coup d'oeil ! - Copyright ORBIFLY Décembre 2007 - Disclaimer

ORBIFLY MET'MAP TEAM :

Programmation & Développement : Alexandra Zaïnal
Conception & Développement : Baudouin d'Aumeries
Co-Programmation & Développement : Marc-Olivier Méhu
Soutien technique & logistique : Manuel Goepfert

Contact : metmap@orbifly.com




SOURCES & CREDITS :

   NOAA